Bushnell, South Dakota
Current Conditions -  °F | °C
As of 1:53 AM on Sunday 26 Oct 2014 (Local Time) from KCNB Reporting Station
Clear Clear  
Wind Chill: 37°   Ceiling: Unl
Heat Index: 37°   Visibility: 10mi
Dew Point: 32°   Wind: 3mph
Humidity: 81%   Direction: 180°S
Pressure: 30.03"   Gusts: NA
Location:  44.4253°N, 96.5963°W
Report Text: KCNB 260653Z AUTO 18003KT 10SM CLR 03/00 A3003 RMK AO2 T00300000
Loading
Personal Weather Stations






























Interactive Weather Map
Tropical Storm Tracking
New forecast layout! Learn more

10-Day Weather Forecast

Advertisements
Track Severe Weather on mobile